Time;durP1;ratioP1;P1;durP2;ratioP2;P2;SDS_P1;SDS_P2;PMS_P1;PMS_P2;Temp;Humidity;BMP_temperature;BMP_pressure;BME280_temperature;BME280_humidity;BME280_pressure;Samples;Min_cycle;Max_cycle;Signal;HPM_P1;HPM_P2
2021/11/03 00:02:02;;;;;;;83.82;10.45;;;;;;;4.50;84.80;93097.94;5112416;28;20401;-54
2021/11/03 00:04:29;;;;;;;80.32;9.02;;;;;;;4.26;84.51;93104.22;5090501;28;20043;-53
2021/11/03 00:06:55;;;;;;;98.50;9.70;;;;;;;4.14;85.25;93105.59;5090998;28;20028;-54
2021/11/03 00:09:20;;;;;;;82.93;11.30;;;;;;;4.16;85.31;93103.09;5090991;28;20666;-53
2021/11/03 00:11:46;;;;;;;82.40;8.80;;;;;;;4.23;85.12;93107.97;5090668;28;20024;-52
2021/11/03 00:14:11;;;;;;;46.83;9.18;;;;;;;4.49;84.38;93102.66;5091715;28;20020;-53
2021/11/03 00:16:37;;;;;;;118.97;13.55;;;;;;;4.55;84.07;93110.78;5091797;28;20036;-51
2021/11/03 00:19:02;;;;;;;125.75;12.27;;;;;;;4.60;83.39;93116.19;5091613;28;20028;-52
2021/11/03 00:21:28;;;;;;;73.90;10.25;;;;;;;4.50;83.97;93115.06;5091797;28;20034;-50
2021/11/03 00:23:54;;;;;;;87.75;11.13;;;;;;;4.55;83.12;93117.00;5091775;28;20062;-53
2021/11/03 00:26:19;;;;;;;118.55;11.30;;;;;;;4.68;83.16;93121.06;5091504;28;20035;-53
2021/11/03 00:28:44;;;;;;;84.28;13.98;;;;;;;4.72;83.66;93110.56;5095165;28;20061;-54
2021/11/03 00:31:10;;;;;;;128.57;12.43;;;;;;;4.64;83.39;93096.72;5112015;28;20485;-52
2021/11/03 00:33:35;;;;;;;114.30;11.85;;;;;;;4.65;83.30;93114.63;5112078;28;20488;-48
2021/11/03 00:36:02;;;;;;;109.90;12.73;;;;;;;4.61;82.50;93109.44;5112008;28;20061;-51
2021/11/03 00:38:27;;;;;;;130.50;12.95;;;;;;;4.65;82.31;93125.56;5110932;28;20106;-53
2021/11/03 00:40:55;;;;;;;61.47;9.23;;;;;;;4.66;82.06;93126.31;5111549;28;20023;-48
2021/11/03 00:43:21;;;;;;;42.42;8.57;;;;;;;4.68;81.89;93129.28;5111786;28;20503;-47
2021/11/03 00:45:46;;;;;;;89.60;9.43;;;;;;;4.66;82.01;93129.06;5111895;28;20081;-48
2021/11/03 00:48:14;;;;;;;48.00;8.50;;;;;;;4.59;81.82;93106.50;5111752;27;20451;-47
2021/11/03 00:50:40;;;;;;;113.00;11.95;;;;;;;4.74;80.86;93129.91;5111742;28;20459;-51
2021/11/03 00:53:06;;;;;;;72.25;10.77;;;;;;;4.54;81.68;93112.78;5111697;28;20039;-51
2021/11/03 00:55:32;;;;;;;65.85;11.38;;;;;;;4.75;80.81;93128.66;5111312;28;20028;-48
2021/11/03 00:57:57;;;;;;;58.75;8.90;;;;;;;4.74;80.07;93124.44;5111637;28;20028;-47
2021/11/03 01:00:23;;;;;;;33.53;6.47;;;;;;;4.54;79.91;93129.19;5111592;28;20074;-49
2021/11/03 01:02:49;;;;;;;36.42;7.68;;;;;;;4.37;79.82;93139.59;5104560;28;20620;-48
2021/11/03 01:05:16;;;;;;;38.03;7.00;;;;;;;4.32;79.49;93137.69;5098763;28;20096;-47
2021/11/03 01:07:42;;;;;;;19.08;5.93;;;;;;;4.33;78.64;93143.88;5111533;28;20514;-53
2021/11/03 01:10:09;;;;;;;20.70;5.57;;;;;;;4.36;78.11;93145.56;5111372;28;20032;-51
2021/11/03 01:12:35;;;;;;;21.92;6.55;;;;;;;4.22;78.25;93125.59;5111387;28;20027;-51
2021/11/03 01:15:02;;;;;;;43.53;6.38;;;;;;;4.29;77.73;93141.44;5110862;28;20026;-54
2021/11/03 01:17:28;;;;;;;35.33;6.78;;;;;;;4.03;78.27;93133.03;5110969;28;20100;-49
2021/11/03 01:19:53;;;;;;;23.83;6.82;;;;;;;3.89;79.00;93144.38;5111237;28;20040;-49
2021/11/03 01:22:18;;;;;;;39.03;7.72;;;;;;;3.91;79.51;93148.09;5111004;28;20560;-49
2021/11/03 01:24:44;;;;;;;22.25;6.60;;;;;;;3.81;79.44;93152.44;5109468;28;20055;-52
2021/11/03 01:27:09;;;;;;;25.15;5.90;;;;;;;3.67;79.57;93156.28;5090801;28;20568;-51
2021/11/03 01:29:35;;;;;;;20.95;6.45;;;;;;;3.70;80.08;93155.25;5094352;28;20030;-52
2021/11/03 01:32:00;;;;;;;17.73;7.78;;;;;;;3.60;80.83;93162.28;5100786;28;20504;-50
2021/11/03 01:34:26;;;;;;;26.20;7.13;;;;;;;3.52;80.55;93166.84;5091981;28;20416;-52
2021/11/03 01:36:51;;;;;;;49.75;7.07;;;;;;;3.48;81.26;93169.09;5110776;28;20084;-50
2021/11/03 01:39:17;;;;;;;72.00;8.88;;;;;;;3.59;81.34;93167.03;5110980;28;20031;-50
2021/11/03 01:41:43;;;;;;;79.05;9.70;;;;;;;3.46;82.05;93172.34;5104368;28;20063;-49
2021/11/03 01:44:16;;;;;;;68.40;10.13;;;;;;;3.57;nan;93168.78;5094787;28;20011;-50
2021/11/03 01:46:46;;;;;;;61.08;11.57;;;;;;;3.39;81.99;93186.56;5103314;28;20035;-52
2021/11/03 01:49:22;;;;;;;121.18;13.52;;;;;;;3.41;82.16;93183.31;5090026;28;20024;-46
2021/11/03 01:52:07;;;;;;;161.57;15.38;;;;;;;3.58;81.68;93184.66;5090545;28;20046;-47
2021/11/03 01:54:39;;;;;;;112.88;14.30;;;;;;;3.61;80.85;93180.91;5090116;28;20012;-47
2021/11/03 01:57:08;;;;;;;169.07;12.93;;;;;;;3.57;81.21;93187.91;5090405;28;20076;-47
2021/11/03 01:59:38;;;;;;;58.90;9.07;;;;;;;3.59;80.89;93193.59;5090116;28;20040;-48
2021/11/03 02:02:05;;;;;;;76.97;14.68;;;;;;;3.43;81.39;93203.38;5090437;28;20032;-46
2021/11/03 02:04:31;;;;;;;73.38;8.43;;;;;;;3.55;80.98;93196.56;5088759;28;20035;-51
2021/11/03 02:06:58;;;;;;;76.68;9.20;;;;;;;3.45;81.00;93209.06;5089040;28;20127;-48
2021/11/03 02:09:23;;;;;;;73.20;12.38;;;;;;;3.48;79.52;93210.03;5088710;28;20035;-48
2021/11/03 02:11:49;;;;;;;37.75;8.30;;;;;;;3.53;78.87;93204.53;5090022;28;20081;-49
2021/11/03 02:14:14;;;;;;;25.80;7.82;;;;;;;3.58;78.01;93203.00;5090140;28;20036;-48
2021/11/03 02:16:48;;;;;;;29.27;7.47;;;;;;;3.49;78.59;93206.06;5089108;28;20601;-50
2021/11/03 02:19:22;;;;;;;52.97;9.93;;;;;;;3.40;78.78;93209.13;5088600;28;20024;-48
2021/11/03 02:22:04;;;;;;;37.80;9.95;;;;;;;3.48;79.44;93208.06;5098249;28;20485;-52
2021/11/03 02:24:40;;;;;;;42.28;10.05;;;;;;;3.29;79.38;93209.22;5110595;28;20030;-53
2021/11/03 02:27:06;;;;;;;29.95;7.45;;;;;;;3.12;79.30;93205.88;5109277;28;20030;-51
2021/11/03 02:29:31;;;;;;;23.48;6.28;;;;;;;3.13;78.42;93218.25;5110270;28;20019;-52
2021/11/03 02:32:11;;;;;;;29.50;6.88;;;;;;;3.13;78.49;93220.97;5110078;28;20027;-46
2021/11/03 02:34:37;;;;;;;24.17;5.85;;;;;;;3.18;77.90;93220.19;5110343;28;20024;-47
2021/11/03 02:37:28;;;;;;;16.30;6.93;;;;;;;3.16;78.15;93222.69;5110298;28;20385;-49
2021/11/03 02:40:17;;;;;;;14.88;7.28;;;;;;;3.14;78.42;93225.91;5110098;28;20024;-48
2021/11/03 02:42:46;;;;;;;16.20;7.30;;;;;;;3.13;78.83;93235.34;5109966;28;20028;-48
2021/11/03 02:45:25;;;;;;;56.38;13.38;;;;;;;3.09;77.78;93229.44;5110279;28;20120;-48
2021/11/03 02:47:50;;;;;;;63.28;14.00;;;;;;;3.20;79.05;93234.06;5108909;28;20031;-49
2021/11/03 02:50:16;;;;;;;47.65;12.88;;;;;;;3.08;79.10;93241.56;5109734;28;20031;-49
2021/11/03 02:52:42;;;;;;;52.45;11.25;;;;;;;3.05;79.15;93237.16;5110199;28;20055;-54
2021/11/03 02:55:10;;;;;;;31.00;9.75;;;;;;;3.07;79.40;93240.81;5110039;28;20080;-55
2021/11/03 02:57:36;;;;;;;27.10;9.70;;;;;;;3.08;78.46;93252.47;5109949;28;20042;-52
2021/11/03 03:00:05;;;;;;;15.30;7.55;;;;;;;2.96;78.83;93248.34;5109985;28;20032;-51
2021/11/03 03:02:31;;;;;;;21.10;6.57;;;;;;;2.80;78.25;93241.75;5108205;28;20102;-52
2021/11/03 03:04:56;;;;;;;21.25;6.30;;;;;;;2.71;78.90;93236.56;5093055;28;20060;-50
2021/11/03 03:07:22;;;;;;;22.17;7.97;;;;;;;2.75;79.05;93253.41;5092969;28;20024;-46
2021/11/03 03:09:48;;;;;;;19.98;8.18;;;;;;;2.82;79.55;93249.41;5093089;28;20024;-47
2021/11/03 03:12:19;;;;;;;13.05;7.43;;;;;;;2.76;78.04;93237.78;5092991;28;20493;-48
2021/11/03 03:14:47;;;;;;;21.63;10.20;;;;;;;2.72;77.56;93251.69;5092873;28;20024;-46
2021/11/03 03:17:14;;;;;;;17.10;7.25;;;;;;;2.64;77.79;93228.91;5093948;28;20032;-49
2021/11/03 03:19:41;;;;;;;9.80;7.93;;;;;;;2.59;78.37;93258.94;5113255;28;20035;-47
2021/11/03 03:22:08;;;;;;;16.90;8.95;;;;;;;2.49;79.28;93266.63;5113422;28;20107;-48
2021/11/03 03:24:34;;;;;;;16.77;9.52;;;;;;;2.51;79.12;93266.91;5113410;28;20020;-48
2021/11/03 03:26:59;;;;;;;10.65;7.72;;;;;;;2.63;78.68;93267.59;5108947;28;20023;-49
2021/11/03 03:29:25;;;;;;;18.10;8.55;;;;;;;2.28;79.88;93263.50;5102164;28;20024;-49
2021/11/03 03:31:50;;;;;;;21.98;9.43;;;;;;;2.24;80.24;93262.28;5102214;28;20019;-48
2021/11/03 03:34:19;;;;;;;12.27;6.43;;;;;;;2.20;80.60;93270.72;5103576;28;20019;-49
2021/11/03 03:36:46;;;;;;;11.00;6.10;;;;;;;2.26;80.17;93265.22;5100718;28;20016;-48
2021/11/03 03:39:13;;;;;;;8.25;5.70;;;;;;;2.35;79.27;93278.59;5101816;28;20076;-49
2021/11/03 03:41:40;;;;;;;8.48;5.90;;;;;;;2.29;79.32;93261.53;5103399;28;20045;-48
2021/11/03 03:44:06;;;;;;;7.25;5.53;;;;;;;2.42;79.42;93271.88;5102216;28;20020;-48
2021/11/03 03:46:32;;;;;;;7.47;5.75;;;;;;;2.43;79.33;93285.00;5093816;28;20051;-49
2021/11/03 03:48:57;;;;;;;6.40;5.20;;;;;;;2.48;79.29;93281.53;5092256;28;20082;-51
2021/11/03 03:51:23;;;;;;;14.00;7.13;;;;;;;2.52;79.09;93287.44;5092587;28;20027;-50
2021/11/03 03:53:49;;;;;;;7.35;5.65;;;;;;;2.48;79.08;93286.22;5092574;28;20020;-50
2021/11/03 03:56:15;;;;;;;13.07;7.90;;;;;;;2.59;79.98;93288.91;5092155;28;20020;-49
2021/11/03 03:58:42;;;;;;;16.88;12.88;;;;;;;2.54;79.73;93284.97;5092462;28;20028;-54
2021/11/03 04:01:10;;;;;;;19.08;12.68;;;;;;;2.70;79.33;93281.44;5092102;28;20024;-53
2021/11/03 04:03:35;;;;;;;25.80;13.23;;;;;;;2.72;79.37;93289.13;5091847;28;20106;-53
2021/11/03 04:06:01;;;;;;;43.50;17.40;;;;;;;2.65;80.11;93295.81;5092464;28;20454;-52
2021/11/03 04:08:26;;;;;;;24.00;11.43;;;;;;;2.74;80.03;93292.81;5091990;28;20043;-51
2021/11/03 04:10:52;;;;;;;23.20;11.65;;;;;;;2.52;80.66;93282.00;5091815;28;20107;-52
2021/11/03 04:13:20;;;;;;;28.83;10.55;;;;;;;2.80;81.29;93299.00;5092090;28;20052;-52
2021/11/03 04:15:46;;;;;;;37.97;8.57;;;;;;;2.73;80.30;93299.50;5092155;28;20052;-52
2021/11/03 04:18:11;;;;;;;25.83;12.98;;;;;;;2.80;81.03;93299.00;5091817;28;20672;-51
2021/11/03 04:20:37;;;;;;;32.60;10.40;;;;;;;2.70;80.48;93297.81;5092071;28;20085;-54
2021/11/03 04:23:03;;;;;;;38.00;10.63;;;;;;;2.79;80.10;93319.31;5091970;28;20390;-54
2021/11/03 04:25:29;;;;;;;48.13;10.77;;;;;;;2.65;80.79;93309.47;5106995;28;20106;-54
2021/11/03 04:27:54;;;;;;;30.10;9.32;;;;;;;2.33;81.56;93313.00;5111907;28;20107;-50
2021/11/03 04:30:23;;;;;;;44.70;15.55;;;;;;;2.33;81.95;93296.66;5112088;28;20106;-54
2021/11/03 04:32:48;;;;;;;45.10;14.63;;;;;;;2.46;82.31;93302.34;5111801;28;20020;-52
2021/11/03 04:35:14;;;;;;;69.75;12.07;;;;;;;2.56;81.66;93304.28;5111650;28;20034;-52
2021/11/03 04:37:40;;;;;;;40.55;6.18;;;;;;;2.51;81.47;93305.06;5111766;28;20024;-54
2021/11/03 04:40:08;;;;;;;28.05;6.43;;;;;;;2.64;81.71;93318.13;5101405;28;20078;-53
2021/11/03 04:42:33;;;;;;;48.05;8.00;;;;;;;2.61;81.26;93311.69;5111607;28;20024;-53
2021/11/03 04:44:59;;;;;;;27.77;7.90;;;;;;;2.50;81.91;93321.88;5111763;28;20024;-51
2021/11/03 04:47:24;;;;;;;16.55;6.97;;;;;;;2.46;81.60;93321.41;5111552;28;20543;-52
2021/11/03 04:49:50;;;;;;;37.20;7.65;;;;;;;2.21;82.43;93321.19;5111860;28;20027;-56
2021/11/03 04:52:15;;;;;;;24.63;7.32;;;;;;;2.30;81.47;93315.50;5111714;28;20047;-53
2021/11/03 04:54:41;;;;;;;15.10;7.85;;;;;;;2.37;82.54;93314.25;5111671;28;20509;-54
2021/11/03 04:57:07;;;;;;;19.17;10.43;;;;;;;2.53;82.73;93313.47;5111582;28;20024;-54
2021/11/03 04:59:33;;;;;;;34.67;14.05;;;;;;;2.67;82.63;93312.41;5111433;28;20023;-52
2021/11/03 05:01:58;;;;;;;30.17;10.45;;;;;;;2.71;82.14;93318.34;5110569;28;20020;-53
2021/11/03 05:04:24;;;;;;;35.97;11.40;;;;;;;2.58;81.84;93301.78;5091200;27;20109;-52
2021/11/03 05:06:51;;;;;;;38.20;10.23;;;;;;;2.86;80.94;93332.41;5091054;28;20101;-51
2021/11/03 05:09:17;;;;;;;36.53;12.20;;;;;;;2.95;80.03;93334.88;5090959;28;20028;-51
2021/11/03 05:11:43;;;;;;;91.68;23.52;;;;;;;3.02;79.87;93342.53;5108851;28;20160;-49
2021/11/03 05:14:09;;;;;;;74.15;24.75;;;;;;;2.99;79.79;93343.53;5111300;28;20027;-48
2021/11/03 05:16:35;;;;;;;60.55;17.20;;;;;;;3.10;80.40;93348.19;5111280;28;20127;-47
2021/11/03 05:19:01;;;;;;;71.22;19.73;;;;;;;3.12;79.75;93347.69;5111197;28;20095;-51
2021/11/03 05:21:27;;;;;;;74.18;15.15;;;;;;;2.96;80.29;93349.25;5110689;28;20031;-50
2021/11/03 05:23:52;;;;;;;62.22;15.77;;;;;;;2.89;81.20;93347.03;5111093;28;20055;-50
2021/11/03 05:26:20;;;;;;;63.28;9.88;;;;;;;2.99;81.17;93362.59;5111024;28;20020;-51
2021/11/03 05:28:49;;;;;;;55.03;12.38;;;;;;;3.06;80.93;93351.19;5111050;28;20028;-53
2021/11/03 05:31:15;;;;;;;;;;;;;;;3.11;81.61;93368.03;5111253;27;20056;-51
2021/11/03 05:33:40;;;;;;;50.95;16.70;;;;;;;2.89;82.15;93355.22;5111113;28;19911;-53
2021/11/03 05:36:06;;;;;;;85.60;20.98;;;;;;;2.82;82.53;93364.66;5110717;28;20112;-53
2021/11/03 05:38:31;;;;;;;57.55;16.02;;;;;;;2.98;83.15;93372.06;5111081;28;20141;-51
2021/11/03 05:40:57;;;;;;;74.55;16.17;;;;;;;3.19;83.77;93380.63;5110563;28;20106;-49
2021/11/03 05:43:22;;;;;;;95.03;16.80;;;;;;;3.38;82.82;93391.72;5110627;28;20019;-51
2021/11/03 05:45:49;;;;;;;82.03;13.63;;;;;;;3.37;82.13;93396.44;5110155;28;20026;-48
2021/11/03 05:48:15;;;;;;;47.15;11.65;;;;;;;3.39;81.28;93393.94;5110907;28;20080;-51
2021/11/03 05:50:40;;;;;;;65.13;16.65;;;;;;;3.24;81.42;93401.69;5110585;28;20027;-49
2021/11/03 05:53:06;;;;;;;51.20;14.32;;;;;;;3.09;82.22;93409.44;5110745;28;20030;-53
2021/11/03 05:55:32;;;;;;;68.38;18.67;;;;;;;3.13;82.22;93411.91;5110810;28;20138;-50
2021/11/03 05:57:57;;;;;;;44.53;11.65;;;;;;;3.03;81.82;93412.19;5110575;28;20046;-51
2021/11/03 06:00:31;;;;;;;57.63;15.48;;;;;;;3.29;81.70;93414.56;5110903;28;20031;-45
2021/11/03 06:02:56;;;;;;;41.08;9.60;;;;;;;3.40;80.56;93411.78;5106355;28;20035;-46
2021/11/03 06:05:22;;;;;;;30.15;9.65;;;;;;;3.48;79.79;93420.19;5107728;28;20058;-49
2021/11/03 06:07:52;;;;;;;64.32;14.05;;;;;;;3.58;78.67;93405.75;5091266;28;20054;-47
2021/11/03 06:10:24;;;;;;;53.75;10.82;;;;;;;3.60;79.74;93408.72;5087755;28;20451;-49
2021/11/03 06:12:50;;;;;;;64.05;13.77;;;;;;;3.72;80.96;93417.59;5087921;28;20028;-46
2021/11/03 06:15:16;;;;;;;58.70;20.80;;;;;;;3.96;81.00;93412.25;5087466;28;20043;-45
2021/11/03 06:17:41;;;;;;;42.42;14.93;;;;;;;4.00;80.07;93429.09;5099175;28;20421;-46
2021/11/03 06:20:08;;;;;;;51.97;15.48;;;;;;;4.20;80.15;93430.69;5107604;28;20050;-47
2021/11/03 06:22:34;;;;;;;103.60;36.85;;;;;;;4.34;78.40;93418.66;5107702;28;20492;-50
2021/11/03 06:25:00;;;;;;;61.72;22.77;;;;;;;4.39;77.36;93410.41;5107747;28;20035;-49
2021/11/03 06:27:26;;;;;;;69.82;25.35;;;;;;;4.51;76.92;93414.53;5107806;28;20039;-54
2021/11/03 06:29:52;;;;;;;42.15;16.48;;;;;;;4.75;76.88;93424.75;5104196;28;20039;-58
2021/11/03 06:32:17;;;;;;;66.25;12.90;;;;;;;4.84;76.06;93407.25;5087581;28;20047;-54
2021/11/03 06:34:43;;;;;;;62.53;12.32;;;;;;;4.78;75.71;93412.06;5101787;28;20503;-52
2021/11/03 06:37:08;;;;;;;47.15;11.10;;;;;;;4.96;75.42;93394.97;5109522;28;20451;-53
2021/11/03 06:39:34;;;;;;;60.08;9.60;;;;;;;5.24;74.91;93404.34;5111799;28;20032;-53
2021/11/03 06:41:59;;;;;;;39.28;8.63;;;;;;;5.37;74.73;93406.44;5112208;28;20035;-55
2021/11/03 06:44:25;;;;;;;25.13;6.03;;;;;;;5.49;74.65;93416.00;5111538;28;20305;-53
2021/11/03 06:46:50;;;;;;;23.38;5.82;;;;;;;5.33;74.39;93414.94;5110211;28;20147;-50
2021/11/03 06:49:16;;;;;;;28.80;7.32;;;;;;;5.42;73.92;93413.09;5111335;28;20027;-47
2021/11/03 06:51:41;;;;;;;29.08;8.70;;;;;;;5.32;73.76;93413.47;5111615;28;20400;-52
2021/11/03 06:54:07;;;;;;;20.00;6.80;;;;;;;5.73;72.92;93423.41;5111793;28;20443;-53
2021/11/03 06:56:33;;;;;;;30.85;7.28;;;;;;;5.73;72.69;93426.16;5111679;28;20502;-56
2021/11/03 06:58:59;;;;;;;18.75;7.35;;;;;;;5.91;72.88;93431.66;5111712;28;20710;-48
2021/11/03 07:01:25;;;;;;;17.55;5.45;;;;;;;6.02;73.04;93436.25;5111039;28;20085;-48
2021/11/03 07:03:52;;;;;;;15.35;5.40;;;;;;;6.47;71.69;93433.59;5095255;28;20078;-50
2021/11/03 07:06:18;;;;;;;4.80;4.30;;;;;;;7.10;71.33;93436.28;5090955;28;20124;-49
2021/11/03 07:08:43;;;;;;;19.50;4.95;;;;;;;7.63;68.76;93429.50;5090559;28;20554;-48
2021/11/03 07:11:09;;;;;;;9.13;6.30;;;;;;;8.59;65.61;93426.19;5088825;28;20035;-49
2021/11/03 07:13:35;;;;;;;68.28;34.50;;;;;;;9.38;63.80;93423.69;5090716;28;20035;-52
2021/11/03 07:16:01;;;;;;;18.77;12.20;;;;;;;10.77;61.63;93431.44;5090710;28;20441;-51
2021/11/03 07:18:27;;;;;;;5.80;4.80;;;;;;;12.34;57.62;93431.78;5090747;28;20040;-48
2021/11/03 07:20:53;;;;;;;10.52;9.30;;;;;;;13.42;54.12;93413.34;5090356;28;20028;-58
2021/11/03 07:23:21;;;;;;;7.13;6.38;;;;;;;14.41;51.14;93424.16;5090126;28;20051;-57
2021/11/03 07:25:47;;;;;;;5.93;5.32;;;;;;;15.42;48.57;93426.41;5090563;28;20035;-58
2021/11/03 07:28:12;;;;;;;5.78;5.22;;;;;;;15.87;46.51;93423.59;5089408;28;20031;-58
2021/11/03 07:30:39;;;;;;;7.55;6.55;;;;;;;16.55;44.91;93425.09;5090563;28;20016;-58
2021/11/03 07:33:06;;;;;;;16.75;11.93;;;;;;;16.96;43.65;93425.16;5089519;28;20400;-59
2021/11/03 07:35:32;;;;;;;28.30;20.55;;;;;;;17.37;41.86;93415.47;5090215;28;20028;-59
2021/11/03 07:37:58;;;;;;;19.40;14.25;;;;;;;17.97;40.35;93411.22;5089845;28;20117;-58
2021/11/03 07:40:27;;;;;;;21.92;15.25;;;;;;;18.52;39.78;93417.56;5099668;28;20058;-59
2021/11/03 07:42:58;;;;;;;21.02;14.90;;;;;;;18.79;39.76;93423.50;5102081;28;20019;-59
2021/11/03 07:45:25;;;;;;;20.52;17.55;;;;;;;19.46;38.37;93412.34;5109893;28;20035;-60
2021/11/03 07:47:51;;;;;;;26.10;21.17;;;;;;;20.07;37.29;93429.94;5090224;28;20024;-59
2021/11/03 07:50:21;;;;;;;22.05;16.00;;;;;;;20.05;37.10;93435.44;5090655;28;20404;-59
2021/11/03 07:52:47;;;;;;;22.00;15.50;;;;;;;20.75;36.74;93435.97;5091007;28;20039;-60
2021/11/03 07:55:12;;;;;;;16.95;12.98;;;;;;;21.42;35.18;93451.66;5091749;28;20021;-60
2021/11/03 07:57:38;;;;;;;14.20;12.38;;;;;;;21.72;34.21;93456.81;5090810;28;20099;-59
2021/11/03 08:00:09;;;;;;;17.00;13.05;;;;;;;20.35;36.85;93431.63;5105138;28;20020;-59
2021/11/03 08:02:34;;;;;;;12.13;10.80;;;;;;;19.41;39.77;93446.28;5105660;28;20396;-59
2021/11/03 08:05:00;;;;;;;10.40;8.90;;;;;;;20.47;37.91;93443.53;5089335;28;20052;-58
2021/11/03 08:07:26;;;;;;;8.80;7.72;;;;;;;19.61;39.52;93458.72;5089629;28;20024;-59
2021/11/03 08:09:52;;;;;;;9.27;8.07;;;;;;;21.24;37.92;93456.28;5088940;28;20018;-59
2021/11/03 08:12:19;;;;;;;13.80;7.40;;;;;;;22.50;35.86;93459.44;5090950;28;20020;-59
2021/11/03 08:14:45;;;;;;;8.63;7.70;;;;;;;23.36;35.36;93462.97;5091239;28;20054;-59
2021/11/03 08:17:14;;;;;;;8.43;7.63;;;;;;;24.14;32.83;93459.47;5091180;28;20024;-59
2021/11/03 08:19:41;;;;;;;;;;;;;;;23.97;33.83;93463.66;5091177;28;20028;-59
2021/11/03 08:22:07;;;;;;;6.93;6.22;;;;;;;24.57;33.58;93457.13;5090498;28;19945;-59
2021/11/03 08:24:33;;;;;;;8.55;6.82;;;;;;;25.11;32.49;93465.06;5091807;28;20097;-59
2021/11/03 08:26:58;;;;;;;13.05;9.93;;;;;;;25.18;31.39;93458.28;5090635;28;20052;-60
2021/11/03 08:29:24;;;;;;;10.45;9.32;;;;;;;25.08;32.17;93443.03;5111293;28;20054;-59
2021/11/03 08:31:52;;;;;;;10.70;7.40;;;;;;;25.84;31.68;93448.13;5111989;28;20027;-59
2021/11/03 08:34:18;;;;;;;17.45;11.90;;;;;;;26.47;30.93;93442.63;5112046;28;20085;-59
2021/11/03 08:36:43;;;;;;;17.83;11.48;;;;;;;26.74;29.89;93405.38;5112150;28;20491;-59
2021/11/03 08:39:09;;;;;;;17.15;14.80;;;;;;;27.23;29.96;93421.84;5111943;28;20403;-60
2021/11/03 08:41:36;;;;;;;12.52;11.15;;;;;;;27.77;29.43;93421.44;5112123;28;20019;-60
2021/11/03 08:44:02;;;;;;;16.98;12.77;;;;;;;27.85;28.81;93417.41;5111743;28;20020;-60
2021/11/03 08:46:27;;;;;;;13.15;10.48;;;;;;;28.01;28.74;93412.94;5111590;28;20102;-59
2021/11/03 08:48:55;;;;;;;10.52;8.15;;;;;;;27.87;28.43;93384.13;5111615;28;20055;-60
2021/11/03 08:51:21;;;;;;;12.50;9.32;;;;;;;28.10;28.55;93411.78;5111879;28;20024;-59
2021/11/03 08:53:46;;;;;;;9.02;8.13;;;;;;;28.31;27.80;93407.38;5111429;28;20510;-59
2021/11/03 08:56:14;;;;;;;11.20;9.63;;;;;;;28.77;27.71;93405.06;5096380;28;20024;-59
2021/11/03 08:58:39;;;;;;;13.88;11.25;;;;;;;29.06;27.06;93399.41;5090663;28;20489;-60
2021/11/03 09:01:05;;;;;;;18.40;13.45;;;;;;;29.30;27.00;93395.75;5090930;28;20024;-60
2021/11/03 09:03:30;;;;;;;9.15;8.25;;;;;;;29.52;26.83;93402.66;5090683;28;20117;-60
2021/11/03 09:05:56;;;;;;;11.25;8.88;;;;;;;29.70;26.84;93400.22;5091212;28;20097;-59
2021/11/03 09:08:22;;;;;;;8.25;7.32;;;;;;;29.81;25.62;93398.34;5091181;28;20451;-59
2021/11/03 09:10:51;;;;;;;8.95;6.35;;;;;;;29.38;26.16;93410.88;5090714;28;20036;-60
2021/11/03 09:13:23;;;;;;;7.18;6.47;;;;;;;29.84;25.68;93402.69;5090987;28;20063;-60
2021/11/03 09:15:49;;;;;;;8.57;6.97;;;;;;;29.75;26.79;93390.41;5090934;28;20024;-59
2021/11/03 09:18:15;;;;;;;7.45;6.63;;;;;;;29.93;25.91;93399.31;5090887;28;20035;-59
2021/11/03 09:20:42;;;;;;;5.82;5.00;;;;;;;30.20;24.41;93399.88;5090588;28;20503;-59
2021/11/03 09:23:08;;;;;;;6.40;5.55;;;;;;;29.88;24.28;93391.41;5090453;28;20422;-59
2021/11/03 09:25:34;;;;;;;5.88;5.28;;;;;;;28.89;25.37;93397.56;5089578;28;20077;-59
2021/11/03 09:27:59;;;;;;;5.55;4.80;;;;;;;28.10;25.34;93396.84;5090835;28;20032;-59
2021/11/03 09:30:27;;;;;;;5.78;4.93;;;;;;;27.72;26.15;93408.50;5090560;28;20103;-59
2021/11/03 09:32:55;;;;;;;5.97;4.40;;;;;;;27.91;26.55;93409.06;5090646;28;20177;-59
2021/11/03 09:35:22;;;;;;;5.57;4.07;;;;;;;28.06;25.39;93402.41;5090237;28;20024;-59
2021/11/03 09:37:48;;;;;;;6.82;3.03;;;;;;;28.74;25.35;93387.25;5090711;28;20115;-59
2021/11/03 09:40:33;;;;;;;6.13;4.07;;;;;;;28.81;25.13;93403.06;5090749;28;20511;-59
2021/11/03 09:42:59;;;;;;;5.57;3.47;;;;;;;28.46;24.82;93398.56;5090330;28;20140;-59
2021/11/03 09:45:29;;;;;;;2.95;2.50;;;;;;;28.04;23.60;93391.75;5090678;28;20095;-60
2021/11/03 09:48:17;;;;;;;5.28;3.10;;;;;;;27.99;24.78;93393.00;5090396;28;20048;-59
2021/11/03 09:50:47;;;;;;;3.08;2.28;;;;;;;27.94;24.11;93385.72;5090564;28;20426;-58
2021/11/03 09:53:27;;;;;;;2.58;1.25;;;;;;;27.33;24.05;93376.81;5108878;28;20030;-59
2021/11/03 09:55:53;;;;;;;3.58;1.70;;;;;;;25.98;27.02;93363.78;5110569;28;20024;-59
2021/11/03 09:58:37;;;;;;;3.42;1.83;;;;;;;25.09;29.37;93362.53;5110861;28;20152;-59
2021/11/03 10:01:18;;;;;;;2.40;2.05;;;;;;;23.98;32.22;93363.56;5110537;28;20511;-59
2021/11/03 10:04:11;;;;;;;1.95;1.85;;;;;;;24.07;34.01;93366.13;5095963;28;20570;-59
2021/11/03 10:06:52;;;;;;;3.83;2.17;;;;;;;24.03;34.10;93360.31;5090362;28;20055;-58
2021/11/03 10:09:17;;;;;;;4.30;2.45;;;;;;;24.00;33.34;93355.19;5089905;28;20074;-58
2021/11/03 10:11:48;;;;;;;4.88;2.05;;;;;;;23.34;32.88;93355.81;5093093;28;20028;-59
2021/11/03 10:14:15;;;;;;;4.57;1.05;;;;;;;22.84;30.17;93357.00;5094117;28;20038;-58
2021/11/03 10:16:44;;;;;;;2.67;1.20;;;;;;;22.24;32.14;93351.25;5094413;28;20135;-58
2021/11/03 10:19:13;;;;;;;3.55;1.67;;;;;;;22.59;29.26;93352.28;5093139;28;20413;-59
2021/11/03 10:21:48;;;;;;;2.05;1.20;;;;;;;22.63;30.59;93346.84;5094291;28;20455;-58
2021/11/03 10:24:13;;;;;;;4.97;1.40;;;;;;;22.40;28.33;93338.69;5094079;28;20035;-58
2021/11/03 10:26:59;;;;;;;2.72;1.20;;;;;;;21.69;31.35;93342.84;5094341;28;20088;-58
2021/11/03 10:29:33;;;;;;;1.95;1.17;;;;;;;21.96;34.22;93338.59;5093892;28;20042;-58
2021/11/03 10:32:02;;;;;;;4.13;1.02;;;;;;;21.85;31.20;93326.81;5094234;28;20020;-58
2021/11/03 10:34:33;;;;;;;1.42;1.10;;;;;;;21.57;30.53;93324.66;5095207;28;20097;-58
2021/11/03 10:37:04;;;;;;;3.75;1.20;;;;;;;21.71;30.54;93328.16;5096210;28;20032;-58
2021/11/03 10:39:57;;;;;;;4.28;1.33;;;;;;;21.44;32.42;93342.22;5112355;28;20024;-58
2021/11/03 10:42:46;;;;;;;2.92;1.30;;;;;;;21.56;32.27;93340.75;5108162;28;20519;-58
2021/11/03 10:45:33;;;;;;;2.88;1.08;;;;;;;22.11;30.31;93333.03;5114252;28;20047;-57
2021/11/03 10:48:08;;;;;;;1.90;1.10;;;;;;;23.18;30.28;93324.06;5106427;28;20061;-55
2021/11/03 10:50:40;;;;;;;2.15;1.08;;;;;;;24.21;29.28;93323.69;5093838;28;20031;-56
2021/11/03 10:53:27;;;;;;;1.15;0.90;;;;;;;24.45;27.88;93318.31;5093375;28;20016;-56
2021/11/03 10:56:01;;;;;;;6.63;1.10;;;;;;;24.13;25.20;93312.06;5093696;28;20086;-58
2021/11/03 10:58:57;;;;;;;1.13;1.02;;;;;;;23.66;26.94;93319.88;5093608;28;20028;-58
2021/11/03 11:01:23;;;;;;;2.88;0.90;;;;;;;22.50;29.26;93313.13;5092969;28;20043;-57
2021/11/03 11:04:06;;;;;;;2.20;0.95;;;;;;;22.18;30.68;93323.53;5091486;28;20052;-58
2021/11/03 11:06:39;;;;;;;1.45;0.80;;;;;;;21.61;28.94;93313.59;5093246;28;20512;-58
2021/11/03 11:09:24;;;;;;;0.90;0.80;;;;;;;21.65;29.25;93317.34;5092188;28;20019;-58
2021/11/03 11:11:53;;;;;;;1.23;0.90;;;;;;;21.67;28.89;93320.25;5098242;28;20020;-58
2021/11/03 11:14:22;;;;;;;2.20;0.68;;;;;;;21.61;27.73;93331.19;5101858;28;20123;-58
2021/11/03 11:17:08;;;;;;;2.00;0.95;;;;;;;21.48;28.71;93329.13;5093000;28;20111;-57
2021/11/03 11:20:11;;;;;;;3.83;0.90;;;;;;;21.64;31.18;93327.13;5091873;28;20043;-58
2021/11/03 11:22:50;;;;;;;1.35;0.90;;;;;;;21.46;29.38;93328.28;5092254;28;20528;-54
2021/11/03 11:25:19;;;;;;;0.90;0.60;;;;;;;21.11;29.73;93337.69;5091985;28;20618;-54
2021/11/03 11:28:03;;;;;;;1.15;0.93;;;;;;;20.93;29.79;93330.34;5092877;28;20485;-52
2021/11/03 11:30:54;;;;;;;3.65;0.75;;;;;;;20.38;30.58;93338.56;5092771;28;20519;-56
2021/11/03 11:33:28;;;;;;;1.83;0.73;;;;;;;19.99;31.75;93340.50;5064094;28;20064;-54
2021/11/03 11:36:22;;;;;;;0.82;0.70;;;;;;;19.80;31.53;93348.47;5092589;28;20409;-55